To NAV CANADA Home Page Login to a new session Search on AWWS site Feedback and Comments Disclaimer Vers la page française équivalente Tips FAQ What's new on the site To the Forecasts and Observations / NOTAM section To "File a Flight Plan" website Publications and other links Update of the User's profile FIC Telephone Numbers My Weather Data Folder Route Weather Data Regional Weather Data Local Weather Data To the Forecasts and Observations / NOTAM section
Request Generated 10/06/2015 at 14:39:00 UTC . Weather information available at that time is displayed.



METAR CYJT 061400Z VRB02KT 15SM BKN022 13/07 A2999 RMK SC6 SLP156=
METAR CYJT 061300Z 05003KT 15SM BKN023 11/07 A3001 RMK SC7 SLP162=
METAR CYJT 061200Z 05004KT 15SM BKN025 BKN080 10/07 A3001 RMK SC6AC1

TAF AMD CYJT 061417Z 0614/0712 VRB03KT P6SM SCT020 BKN090 TEMPO
0614/0616 BKN020
FM061600 24008KT P6SM FEW025 SCT120
BECMG 0616/0618 27010KT
BECMG 0700/0702 VRB03KT
Your time UTC time
Weather data provided by Environment Canada and NAV CANADA